createdAt,value
2022-12-17T00:00:49.610Z,-2.80
2022-12-17T00:03:37.594Z,-2.80
2022-12-17T00:06:24.163Z,-2.80
2022-12-17T00:09:10.098Z,-2.90
2022-12-17T00:11:56.314Z,-2.90
2022-12-17T00:14:42.087Z,-2.90
2022-12-17T00:17:29.095Z,-2.90
2022-12-17T00:20:16.250Z,-2.90
2022-12-17T00:23:03.616Z,-3.00
2022-12-17T00:25:49.275Z,-2.90
2022-12-17T00:28:35.472Z,-3.00
2022-12-17T00:31:21.559Z,-3.00
2022-12-17T00:34:06.585Z,-3.00
2022-12-17T00:36:56.050Z,-3.00
2022-12-17T00:39:41.123Z,-3.00
2022-12-17T00:42:26.907Z,-3.00
2022-12-17T00:45:12.647Z,-3.00
2022-12-17T00:47:59.468Z,-3.00
2022-12-17T00:50:44.495Z,-3.10
2022-12-17T00:53:33.301Z,-3.10
2022-12-17T00:56:19.393Z,-3.10
2022-12-17T00:59:10.700Z,-3.10
2022-12-17T01:01:56.799Z,-3.00
2022-12-17T01:04:43.316Z,-3.10
2022-12-17T01:07:30.829Z,-3.10
2022-12-17T01:10:18.252Z,-3.10
2022-12-17T01:13:04.115Z,-3.10
2022-12-17T01:15:50.265Z,-3.10
2022-12-17T01:18:37.635Z,-3.10
2022-12-17T01:21:23.758Z,-3.20
2022-12-17T01:24:12.513Z,-3.10
2022-12-17T01:26:59.836Z,-3.10
2022-12-17T01:29:44.828Z,-3.10
2022-12-17T01:32:31.311Z,-3.20
2022-12-17T01:35:28.819Z,-3.20
2022-12-17T01:38:23.210Z,-3.20
2022-12-17T01:41:07.045Z,-3.20
2022-12-17T01:43:56.378Z,-3.20
2022-12-17T01:46:44.116Z,-3.20
2022-12-17T01:49:31.995Z,-3.20
2022-12-17T01:52:18.547Z,-3.30
2022-12-17T01:55:05.796Z,-3.20
2022-12-17T01:57:52.326Z,-3.20
2022-12-17T02:00:40.391Z,-3.30
2022-12-17T02:03:33.535Z,-3.30
2022-12-17T02:06:28.165Z,-3.20
2022-12-17T02:09:25.230Z,-3.30
2022-12-17T02:12:19.548Z,-3.30
2022-12-17T02:15:15.337Z,-3.30
2022-12-17T02:18:07.798Z,-3.30
2022-12-17T02:21:01.078Z,-3.30
2022-12-17T02:23:56.531Z,-3.30
2022-12-17T02:26:55.138Z,-3.20
2022-12-17T02:29:42.788Z,-3.30
2022-12-17T02:32:30.608Z,-3.30
2022-12-17T02:35:19.920Z,-3.30
2022-12-17T02:38:06.700Z,-3.40
2022-12-17T02:40:56.857Z,-3.40
2022-12-17T02:43:46.296Z,-3.50
2022-12-17T02:46:33.825Z,-3.50
2022-12-17T02:49:19.706Z,-3.40
2022-12-17T02:52:07.297Z,-3.50
2022-12-17T02:54:53.909Z,-3.50
2022-12-17T02:57:43.585Z,-3.50
2022-12-17T03:00:34.133Z,-3.50
2022-12-17T03:03:20.014Z,-3.50
2022-12-17T03:06:06.315Z,-3.60
2022-12-17T03:08:53.178Z,-3.60
2022-12-17T03:11:38.255Z,-3.60
2022-12-17T03:14:24.339Z,-3.60
2022-12-17T03:17:12.116Z,-3.60
2022-12-17T03:19:57.951Z,-3.60
2022-12-17T03:22:43.792Z,-3.50
2022-12-17T03:25:29.664Z,-3.60
2022-12-17T03:28:15.783Z,-3.60
2022-12-17T03:31:01.988Z,-3.60
2022-12-17T03:33:49.497Z,-3.60
2022-12-17T03:36:35.465Z,-3.60
2022-12-17T03:39:22.578Z,-3.50
2022-12-17T03:42:08.609Z,-3.50
2022-12-17T03:44:55.000Z,-3.50
2022-12-17T03:47:40.944Z,-3.50
2022-12-17T03:50:28.611Z,-3.50
2022-12-17T03:53:14.434Z,-3.60
2022-12-17T03:56:08.931Z,-3.50
2022-12-17T03:58:54.966Z,-3.60
2022-12-17T04:01:40.898Z,-3.60
2022-12-17T04:04:27.005Z,-3.60
2022-12-17T04:07:14.539Z,-3.60
2022-12-17T04:10:00.421Z,-3.60
2022-12-17T04:12:46.217Z,-3.60
2022-12-17T04:15:31.989Z,-3.60
2022-12-17T04:18:17.821Z,-3.60
2022-12-17T04:21:03.768Z,-3.60
2022-12-17T04:23:51.172Z,-3.60
2022-12-17T04:26:36.949Z,-3.60
2022-12-17T04:29:22.668Z,-3.60
2022-12-17T04:32:08.309Z,-3.70
2022-12-17T04:34:54.174Z,-3.70
2022-12-17T04:37:40.119Z,-3.70
2022-12-17T04:40:29.289Z,-3.70
2022-12-17T04:43:15.156Z,-3.70
2022-12-17T04:46:12.521Z,-3.60
2022-12-17T04:48:58.476Z,-3.60
2022-12-17T04:51:48.174Z,-3.60
2022-12-17T04:54:33.938Z,-3.70
2022-12-17T04:57:21.263Z,-3.70
2022-12-17T05:00:15.446Z,-3.70
2022-12-17T05:03:01.379Z,-3.70
2022-12-17T05:05:47.533Z,-3.70
2022-12-17T05:08:36.906Z,-3.70
2022-12-17T05:11:26.828Z,-3.70
2022-12-17T05:14:14.213Z,-3.70
2022-12-17T05:16:59.867Z,-3.70
2022-12-17T05:19:50.893Z,-3.70
2022-12-17T05:22:36.931Z,-3.70
2022-12-17T05:25:23.629Z,-3.70
2022-12-17T05:28:09.809Z,-3.70
2022-12-17T05:31:00.723Z,-3.70
2022-12-17T05:33:46.154Z,-3.70
2022-12-17T05:36:32.344Z,-3.70
2022-12-17T05:39:18.098Z,-3.70
2022-12-17T05:42:03.880Z,-3.70
2022-12-17T05:44:49.618Z,-3.70
2022-12-17T05:47:36.867Z,-3.70
2022-12-17T05:50:23.590Z,-3.70
2022-12-17T05:53:09.843Z,-3.70
2022-12-17T05:56:01.077Z,-3.60
2022-12-17T05:58:47.070Z,-3.70
2022-12-17T06:01:32.961Z,-3.70
2022-12-17T06:04:21.140Z,-3.80
2022-12-17T06:07:06.933Z,-3.70
2022-12-17T06:09:53.316Z,-3.70
2022-12-17T06:12:39.304Z,-3.70
2022-12-17T06:15:26.333Z,-3.80
2022-12-17T06:18:16.722Z,-3.70
2022-12-17T06:21:05.217Z,-3.70
2022-12-17T06:23:50.912Z,-3.70
2022-12-17T06:26:37.991Z,-3.70
2022-12-17T06:29:24.093Z,-3.70
2022-12-17T06:32:10.397Z,-3.70
2022-12-17T06:34:56.257Z,-3.70
2022-12-17T06:37:43.693Z,-3.70
2022-12-17T06:40:30.153Z,-3.70
2022-12-17T06:43:16.308Z,-3.70
2022-12-17T06:46:02.046Z,-3.70
2022-12-17T06:48:47.863Z,-3.70
2022-12-17T06:51:34.337Z,-3.70
2022-12-17T06:54:21.729Z,-3.70
2022-12-17T06:57:07.890Z,-3.50
2022-12-17T06:59:53.627Z,-3.70
2022-12-17T07:02:39.575Z,-3.70
2022-12-17T07:05:26.214Z,-3.70
2022-12-17T07:08:16.033Z,-3.70
2022-12-17T07:11:04.133Z,-3.70
2022-12-17T07:13:50.093Z,-3.70
2022-12-17T07:16:36.239Z,-3.60
2022-12-17T07:19:27.042Z,-3.60
2022-12-17T07:22:14.212Z,-3.60
2022-12-17T07:25:00.576Z,-3.60
2022-12-17T07:27:47.989Z,-3.60
2022-12-17T07:30:33.953Z,-3.60
2022-12-17T07:33:20.501Z,-3.60
2022-12-17T07:36:06.374Z,-3.60
2022-12-17T07:38:53.124Z,-3.60
2022-12-17T07:41:39.015Z,-3.60
2022-12-17T07:44:26.317Z,-3.60
2022-12-17T07:47:08.758Z,-3.60
2022-12-17T07:49:54.780Z,-3.60
2022-12-17T07:52:40.574Z,-3.60
2022-12-17T07:55:27.240Z,-3.80
2022-12-17T07:58:20.597Z,-3.60
2022-12-17T08:01:09.635Z,-3.50
2022-12-17T08:03:57.052Z,-3.50
2022-12-17T08:06:42.835Z,-3.60
2022-12-17T08:09:28.872Z,-3.50
2022-12-17T08:12:14.996Z,-3.50
2022-12-17T08:15:01.763Z,-3.50
2022-12-17T08:17:51.471Z,-3.50
2022-12-17T08:20:37.395Z,-3.50
2022-12-17T08:23:24.463Z,-3.60
2022-12-17T08:26:10.792Z,-3.50
2022-12-17T08:28:56.865Z,-3.50
2022-12-17T08:31:43.499Z,-3.50
2022-12-17T08:34:30.744Z,-3.50
2022-12-17T08:37:16.673Z,-3.50
2022-12-17T08:40:02.309Z,-3.50
2022-12-17T08:42:49.548Z,-3.50
2022-12-17T08:45:35.832Z,-3.50
2022-12-17T08:48:22.937Z,-3.50
2022-12-17T08:51:10.404Z,-3.40
2022-12-17T08:53:56.759Z,-3.50
2022-12-17T08:56:43.117Z,-3.40
2022-12-17T08:59:29.353Z,-3.40
2022-12-17T09:02:18.111Z,-3.30
2022-12-17T09:05:04.358Z,-3.40
2022-12-17T09:07:51.695Z,-3.40
2022-12-17T09:10:38.193Z,-3.40
2022-12-17T09:13:24.908Z,-3.40
2022-12-17T09:16:11.670Z,-3.30
2022-12-17T09:19:12.727Z,-3.30
2022-12-17T09:21:58.534Z,-3.20
2022-12-17T09:24:46.054Z,-3.20
2022-12-17T09:27:33.763Z,-3.10
2022-12-17T09:30:20.134Z,-3.10
2022-12-17T09:33:06.471Z,-3.00
2022-12-17T09:35:52.804Z,-3.10
2022-12-17T09:38:38.572Z,-3.10
2022-12-17T09:41:36.161Z,-3.10
2022-12-17T09:44:30.378Z,-3.10
2022-12-17T09:47:24.722Z,-3.10
2022-12-17T09:50:11.840Z,-3.10
2022-12-17T09:53:00.148Z,-3.00
2022-12-17T09:55:50.369Z,-3.10
2022-12-17T09:58:40.957Z,-3.10
2022-12-17T10:01:35.355Z,-3.10
2022-12-17T10:04:22.649Z,-3.00
2022-12-17T10:07:08.893Z,-3.10
2022-12-17T10:09:55.086Z,-3.00
2022-12-17T10:12:43.546Z,-3.00
2022-12-17T10:15:33.626Z,-3.00
2022-12-17T10:18:25.561Z,-3.10
2022-12-17T10:21:18.703Z,-3.00
2022-12-17T10:24:04.854Z,-3.00
2022-12-17T10:26:52.002Z,-3.00
2022-12-17T10:29:47.061Z,-3.00
2022-12-17T10:32:41.422Z,-2.90
2022-12-17T10:35:33.289Z,-3.00
2022-12-17T10:38:19.834Z,-2.90
2022-12-17T10:41:05.948Z,-2.90
2022-12-17T10:43:56.801Z,-2.80
2022-12-17T10:46:44.732Z,-2.90
2022-12-17T10:49:34.203Z,-2.80
2022-12-17T10:52:23.405Z,-2.80
2022-12-17T10:55:22.453Z,-2.80
2022-12-17T10:58:10.054Z,-2.80
2022-12-17T11:00:58.293Z,-2.70
2022-12-17T11:03:51.961Z,-2.60
2022-12-17T11:06:46.007Z,-2.60
2022-12-17T11:09:46.139Z,-2.60
2022-12-17T11:12:34.852Z,-2.50
2022-12-17T11:15:27.698Z,-2.60
2022-12-17T11:18:15.263Z,-2.60
2022-12-17T11:21:07.439Z,-2.70
2022-12-17T11:23:59.945Z,-2.70
2022-12-17T11:26:49.220Z,-2.80
2022-12-17T11:29:35.384Z,-2.80
2022-12-17T11:32:53.225Z,-2.80
2022-12-17T11:35:47.136Z,-2.80
2022-12-17T11:38:48.531Z,-2.80
2022-12-17T11:41:46.891Z,-2.80
2022-12-17T11:44:47.035Z,-2.80
2022-12-17T11:47:40.844Z,-2.80
2022-12-17T11:50:42.665Z,-2.70
2022-12-17T11:53:38.954Z,-2.70
2022-12-17T11:56:34.815Z,-2.80
2022-12-17T11:59:33.557Z,-2.70
2022-12-17T12:02:28.421Z,-2.60
2022-12-17T12:05:29.656Z,-2.60
2022-12-17T12:08:23.898Z,-2.60
2022-12-17T12:11:20.734Z,-2.60
2022-12-17T12:14:16.114Z,-2.70
2022-12-17T12:17:14.506Z,-2.60
2022-12-17T12:20:09.844Z,-2.60
2022-12-17T12:23:06.721Z,-2.60
2022-12-17T12:26:00.296Z,-2.50
2022-12-17T12:28:51.266Z,-2.60
2022-12-17T12:31:49.722Z,-2.60
2022-12-17T12:34:56.266Z,-2.70
2022-12-17T12:37:42.983Z,-2.70
2022-12-17T12:40:35.593Z,-2.70
2022-12-17T12:43:28.453Z,-2.70
2022-12-17T12:46:21.142Z,-2.70
2022-12-17T12:49:12.955Z,-2.70
2022-12-17T12:52:00.630Z,-2.70
2022-12-17T12:54:49.338Z,-2.70
2022-12-17T12:57:51.124Z,-2.70
2022-12-17T13:00:49.717Z,-2.70
2022-12-17T13:03:48.592Z,-2.80
2022-12-17T13:06:44.235Z,-2.80
2022-12-17T13:09:39.915Z,-2.80
2022-12-17T13:12:42.333Z,-2.70
2022-12-17T13:15:32.788Z,-2.70
2022-12-17T13:18:15.520Z,-2.60
2022-12-17T13:20:45.138Z,-2.60
2022-12-17T13:23:39.282Z,-2.70
2022-12-17T13:26:24.585Z,-2.70
2022-12-17T13:29:12.877Z,-2.70
2022-12-17T13:32:18.791Z,-2.70
2022-12-17T13:34:56.350Z,-2.80
2022-12-17T13:37:38.610Z,-2.70
2022-12-17T13:40:23.010Z,-2.80
2022-12-17T13:42:51.608Z,-2.80
2022-12-17T13:45:24.337Z,-2.80
2022-12-17T13:47:57.308Z,-2.80
2022-12-17T13:50:36.272Z,-2.80
2022-12-17T13:53:13.107Z,-2.80
2022-12-17T13:55:51.096Z,-2.90
2022-12-17T13:58:24.682Z,-2.90
2022-12-17T14:01:07.346Z,-2.90
2022-12-17T14:04:04.536Z,-2.90
2022-12-17T14:06:27.586Z,-3.00
2022-12-17T14:08:59.812Z,-3.00
2022-12-17T14:11:47.169Z,-2.90
2022-12-17T14:14:27.408Z,-3.00
2022-12-17T14:16:57.428Z,-3.00
2022-12-17T14:19:26.754Z,-3.00
2022-12-17T14:21:55.972Z,-3.00
2022-12-17T14:24:29.425Z,-3.00
2022-12-17T14:27:01.244Z,-3.00
2022-12-17T14:29:31.913Z,-3.10
2022-12-17T14:32:02.788Z,-3.10
2022-12-17T14:34:42.296Z,-3.20
2022-12-17T14:37:18.346Z,-3.10
2022-12-17T14:39:49.596Z,-3.10
2022-12-17T14:42:26.829Z,-3.20
2022-12-17T14:44:57.917Z,-3.20
2022-12-17T14:47:28.661Z,-3.10
2022-12-17T14:50:04.507Z,-3.20
2022-12-17T14:52:53.193Z,-3.20
2022-12-17T14:55:34.742Z,-3.20
2022-12-17T14:58:20.279Z,-3.20
2022-12-17T15:00:52.237Z,-3.20
2022-12-17T15:03:24.665Z,-3.20
2022-12-17T15:05:57.912Z,-3.20
2022-12-17T15:08:26.544Z,-3.20
2022-12-17T15:10:55.151Z,-3.20
2022-12-17T15:13:25.111Z,-3.20
2022-12-17T15:15:54.022Z,-3.20
2022-12-17T15:18:23.218Z,-3.20
2022-12-17T15:20:52.233Z,-3.30
2022-12-17T15:23:23.834Z,-3.30
2022-12-17T15:25:54.200Z,-3.30
2022-12-17T15:28:27.671Z,-3.40
2022-12-17T15:30:56.340Z,-3.50
2022-12-17T15:33:24.998Z,-3.40
2022-12-17T15:35:53.658Z,-3.40
2022-12-17T15:38:23.017Z,-3.50
2022-12-17T15:40:51.630Z,-3.50
2022-12-17T15:43:19.613Z,-3.50
2022-12-17T15:45:50.873Z,-3.50
2022-12-17T15:48:21.319Z,-3.50
2022-12-17T15:50:50.213Z,-3.50
2022-12-17T15:53:18.782Z,-3.50
2022-12-17T15:55:47.293Z,-3.60
2022-12-17T15:58:16.378Z,-3.50
2022-12-17T16:00:45.146Z,-3.60
2022-12-17T16:03:15.090Z,-3.60
2022-12-17T16:05:43.756Z,-3.60
2022-12-17T16:08:12.352Z,-3.60
2022-12-17T16:10:40.962Z,-3.60
2022-12-17T16:13:09.572Z,-3.60
2022-12-17T16:15:38.143Z,-3.60
2022-12-17T16:18:06.869Z,-3.60
2022-12-17T16:20:37.153Z,-3.70
2022-12-17T16:23:05.724Z,-3.70
2022-12-17T16:25:34.252Z,-3.70
2022-12-17T16:28:02.812Z,-3.70
2022-12-17T16:30:31.365Z,-3.70
2022-12-17T16:33:00.070Z,-3.70
2022-12-17T16:35:29.620Z,-3.70
2022-12-17T16:37:59.735Z,-3.70
2022-12-17T16:40:29.279Z,-3.70
2022-12-17T16:42:57.945Z,-3.70
2022-12-17T16:45:26.539Z,-3.70
2022-12-17T16:47:55.071Z,-3.70
2022-12-17T16:50:23.586Z,-3.70
2022-12-17T16:52:52.100Z,-3.80
2022-12-17T16:55:24.420Z,-3.80
2022-12-17T16:57:52.992Z,-3.80
2022-12-17T17:00:21.679Z,-3.80
2022-12-17T17:02:53.405Z,-3.80
2022-12-17T17:05:22.300Z,-3.80
2022-12-17T17:07:50.820Z,-3.80
2022-12-17T17:10:19.400Z,-3.80
2022-12-17T17:12:49.310Z,-3.80
2022-12-17T17:15:17.966Z,-3.80
2022-12-17T17:17:55.565Z,-3.80
2022-12-17T17:20:32.574Z,-3.70
2022-12-17T17:23:03.110Z,-3.80
2022-12-17T17:25:54.229Z,-3.80
2022-12-17T17:28:21.749Z,-3.80
2022-12-17T17:30:50.296Z,-3.80
2022-12-17T17:33:18.882Z,-3.80
2022-12-17T17:35:47.434Z,-3.70
2022-12-17T17:38:16.046Z,-3.70
2022-12-17T17:40:44.508Z,-3.70
2022-12-17T17:43:13.066Z,-3.70
2022-12-17T17:45:43.355Z,-3.70
2022-12-17T17:48:11.929Z,-3.70
2022-12-17T17:50:40.425Z,-3.70
2022-12-17T17:53:08.979Z,-3.60
2022-12-17T17:55:37.783Z,-3.60
2022-12-17T17:58:06.304Z,-3.60
2022-12-17T18:00:34.907Z,-3.60
2022-12-17T18:03:04.995Z,-3.60
2022-12-17T18:05:41.607Z,-3.50
2022-12-17T18:08:10.622Z,-3.50
2022-12-17T18:10:39.178Z,-3.50
2022-12-17T18:13:24.988Z,-3.50
2022-12-17T18:15:53.927Z,-3.60
2022-12-17T18:18:23.825Z,-3.60
2022-12-17T18:21:03.854Z,-3.60
2022-12-17T18:23:32.482Z,-3.60
2022-12-17T18:26:07.114Z,-3.60
2022-12-17T18:28:36.351Z,-3.60
2022-12-17T18:31:10.198Z,-3.60
2022-12-17T18:33:43.062Z,-3.60
2022-12-17T18:36:13.675Z,-3.60
2022-12-17T18:38:42.981Z,-3.60
2022-12-17T18:41:31.545Z,-3.60
2022-12-17T18:44:01.882Z,-3.60
2022-12-17T18:46:31.014Z,-3.60
2022-12-17T18:49:02.293Z,-3.60
2022-12-17T18:51:30.912Z,-3.60
2022-12-17T18:54:00.619Z,-3.60
2022-12-17T18:56:59.542Z,-3.70
2022-12-17T18:59:27.061Z,-3.50
2022-12-17T19:01:57.861Z,-3.60
2022-12-17T19:04:28.545Z,-3.50
2022-12-17T19:06:57.199Z,-3.60
2022-12-17T19:09:27.976Z,-3.60
2022-12-17T19:11:57.275Z,-3.60
2022-12-17T19:14:26.586Z,-3.50
2022-12-17T19:16:58.078Z,-3.50
2022-12-17T19:19:28.546Z,-3.50
2022-12-17T19:21:59.739Z,-3.50
2022-12-17T19:24:28.343Z,-3.50
2022-12-17T19:26:57.012Z,-3.50
2022-12-17T19:29:25.868Z,-3.50
2022-12-17T19:31:54.739Z,-3.50
2022-12-17T19:34:23.421Z,-3.50
2022-12-17T19:36:53.347Z,-3.50
2022-12-17T19:39:21.928Z,-3.50
2022-12-17T19:41:51.246Z,-3.50
2022-12-17T19:44:20.677Z,-3.50
2022-12-17T19:46:49.824Z,-3.50
2022-12-17T19:49:18.695Z,-3.60
2022-12-17T19:51:47.277Z,-3.60
2022-12-17T19:54:17.184Z,-3.60
2022-12-17T19:56:46.270Z,-3.60
2022-12-17T19:59:15.181Z,-3.60
2022-12-17T20:01:46.164Z,-3.60
2022-12-17T20:04:17.017Z,-3.60
2022-12-17T20:06:46.460Z,-3.50
2022-12-17T20:09:17.588Z,-3.60
2022-12-17T20:11:46.333Z,-3.60
2022-12-17T20:14:16.735Z,-3.60
2022-12-17T20:16:47.042Z,-3.60
2022-12-17T20:19:18.261Z,-3.60
2022-12-17T20:21:47.472Z,-3.60
2022-12-17T20:24:18.753Z,-3.60
2022-12-17T20:26:49.849Z,-3.60
2022-12-17T20:29:18.680Z,-3.60
2022-12-17T20:31:49.790Z,-3.50
2022-12-17T20:34:19.676Z,-3.50
2022-12-17T20:36:49.505Z,-3.50
2022-12-17T20:39:24.671Z,-3.50
2022-12-17T20:41:54.999Z,-3.50
2022-12-17T20:44:23.537Z,-3.40
2022-12-17T20:46:52.085Z,-3.50
2022-12-17T20:49:20.693Z,-3.50
2022-12-17T20:51:49.242Z,-3.50
2022-12-17T20:54:19.416Z,-3.60
2022-12-17T20:56:48.519Z,-3.60
2022-12-17T20:59:19.285Z,-3.60
2022-12-17T21:01:54.285Z,-3.60
2022-12-17T21:04:25.058Z,-3.70
2022-12-17T21:06:53.858Z,-3.70
2022-12-17T21:09:25.604Z,-3.70
2022-12-17T21:11:54.264Z,-3.70
2022-12-17T21:14:22.960Z,-3.60
2022-12-17T21:16:51.591Z,-3.70
2022-12-17T21:19:21.056Z,-3.60
2022-12-17T21:21:49.902Z,-3.70
2022-12-17T21:24:18.566Z,-3.60
2022-12-17T21:26:48.884Z,-3.70
2022-12-17T21:29:18.517Z,-3.60
2022-12-17T21:31:48.986Z,-3.60
2022-12-17T21:34:21.402Z,-3.60
2022-12-17T21:36:50.584Z,-3.60
2022-12-17T21:39:20.303Z,-3.70
2022-12-17T21:42:04.605Z,-3.70
2022-12-17T21:44:33.689Z,-3.70
2022-12-17T21:47:02.386Z,-3.70
2022-12-17T21:49:31.388Z,-3.70
2022-12-17T21:52:01.072Z,-3.70
2022-12-17T21:54:29.809Z,-3.70
2022-12-17T21:56:59.716Z,-3.80
2022-12-17T21:59:28.329Z,-3.70
2022-12-17T22:01:57.604Z,-3.70
2022-12-17T22:04:27.223Z,-3.80
2022-12-17T22:07:05.244Z,-3.80
2022-12-17T22:10:03.371Z,-3.80
2022-12-17T22:12:52.128Z,-3.80
2022-12-17T22:15:20.843Z,-3.80
2022-12-17T22:17:51.593Z,-3.80
2022-12-17T22:20:20.434Z,-3.80
2022-12-17T22:22:49.011Z,-3.80
2022-12-17T22:25:18.092Z,-3.80
2022-12-17T22:27:48.049Z,-3.80
2022-12-17T22:30:36.206Z,-3.80
2022-12-17T22:33:09.983Z,-3.80
2022-12-17T22:39:24.464Z,-3.80
2022-12-17T22:41:52.444Z,-3.80
2022-12-17T22:44:35.015Z,-3.70
2022-12-17T22:44:55.814Z,-3.80
2022-12-17T22:47:26.286Z,-3.80
2022-12-17T22:49:54.779Z,-3.80
2022-12-17T22:52:23.733Z,-3.70
2022-12-17T22:54:52.614Z,-3.80
2022-12-17T22:57:34.839Z,-3.80
2022-12-17T23:00:12.960Z,-3.80
2022-12-17T23:02:44.585Z,-3.80
2022-12-17T23:05:13.161Z,-3.80
2022-12-17T23:07:41.829Z,-3.80
2022-12-17T23:10:10.963Z,-3.80
2022-12-17T23:12:55.332Z,-3.80
2022-12-17T23:15:28.790Z,-3.80
2022-12-17T23:17:59.758Z,-3.80
2022-12-17T23:20:30.376Z,-3.80
2022-12-17T23:22:58.938Z,-3.90
2022-12-17T23:25:29.320Z,-3.90
2022-12-17T23:27:58.099Z,-3.90
2022-12-17T23:30:28.024Z,-3.90
2022-12-17T23:32:56.525Z,-3.90
2022-12-17T23:35:25.509Z,-3.90
2022-12-17T23:37:54.009Z,-4.00
2022-12-17T23:40:23.345Z,-4.00
2022-12-17T23:42:51.903Z,-3.90
2022-12-17T23:45:20.672Z,-4.00
2022-12-17T23:47:50.544Z,-4.00
2022-12-17T23:50:19.208Z,-4.00
2022-12-17T23:52:47.695Z,-4.00
2022-12-17T23:55:16.213Z,-4.10
2022-12-17T23:57:44.717Z,-4.10
